Baia Formosa, Brazil
Current Conditions -  °F | °C
As of 5:00 PM on Monday 22 Dec 2014 (Local Time) from SBNT Reporting Station
Scattered Clouds Scattered Clouds  
Wind Chill: 82°   Ceiling: Unl
Heat Index: 86°   Visibility: 6mi
Dew Point: 70°   Wind: 13mph
Humidity: 66%   Direction: 110°ESE
Pressure: 29.88"   Gusts: NA
Location:  6.37°S, 35.01°W
Report Text: SBNT 222000Z 11011KT 9999 SCT023 28/21 Q1012
Loading
Personal Weather Stations






























Interactive Weather Map New forecast layout! Learn more

10-Day Weather Forecast

Advertisements
Track Severe Weather on mobile